Time;durP1;ratioP1;P1;durP2;ratioP2;P2;SDS_P1;SDS_P2;PMS_P1;PMS_P2;Temp;Humidity;BMP_temperature;BMP_pressure;BME280_temperature;BME280_humidity;BME280_pressure;Samples;Min_cycle;Max_cycle;Signal;HPM_P1;HPM_P2
2023/07/07 00:01:53;;;;;;;1.15;0.52;;;;;;;18.18;100.00;99630.00;7393198;19;20022;-77
2023/07/07 00:04:21;;;;;;;0.60;0.40;;;;;;;18.11;100.00;99628.53;7393355;19;20029;-77
2023/07/07 00:06:47;;;;;;;4.75;0.82;;;;;;;17.61;100.00;99625.59;7398145;19;20011;-77
2023/07/07 00:09:13;;;;;;;0.43;0.30;;;;;;;17.72;100.00;99619.81;7393684;19;20078;-76
2023/07/07 00:11:40;;;;;;;0.63;0.55;;;;;;;18.19;100.00;99617.44;7391472;19;20015;-76
2023/07/07 00:14:06;;;;;;;0.20;0.20;;;;;;;17.99;100.00;99627.16;7393144;19;20010;-76
2023/07/07 00:16:32;;;;;;;0.60;0.30;;;;;;;18.67;100.00;99622.88;7396181;19;20029;-77
2023/07/07 00:18:59;;;;;;;0.45;0.35;;;;;;;19.04;100.00;99624.81;7393181;19;20481;-77
2023/07/07 00:21:25;;;;;;;0.20;0.20;;;;;;;18.95;100.00;99624.47;7394194;19;20477;-76
2023/07/07 00:23:54;;;;;;;5.25;0.68;;;;;;;19.17;100.00;99635.38;7392804;19;20011;-77
2023/07/07 00:26:22;;;;;;;1.48;0.70;;;;;;;19.38;100.00;99627.84;7396525;19;20015;-77
2023/07/07 00:28:48;;;;;;;2.08;0.77;;;;;;;19.60;100.00;99616.84;7393377;19;20018;-76
2023/07/07 00:31:16;;;;;;;0.77;0.63;;;;;;;19.10;100.00;99622.66;7392053;19;20023;-76
2023/07/07 00:33:43;;;;;;;0.63;0.52;;;;;;;19.06;100.00;99621.47;7390937;19;20011;-77
2023/07/07 00:36:09;;;;;;;1.98;0.80;;;;;;;17.91;100.00;99625.50;7393867;19;20026;-76
2023/07/07 00:38:35;;;;;;;0.38;0.38;;;;;;;17.39;100.00;99628.59;7390953;19;20350;-76
2023/07/07 00:41:04;;;;;;;0.43;0.20;;;;;;;17.81;100.00;99619.47;7391415;19;20010;-77
2023/07/07 00:43:31;;;;;;;3.05;0.90;;;;;;;17.42;100.00;99619.88;7392437;19;20019;-77
2023/07/07 00:45:58;;;;;;;0.90;0.40;;;;;;;17.54;100.00;99614.94;7395127;19;20026;-76
2023/07/07 00:48:32;;;;;;;0.95;0.50;;;;;;;18.00;100.00;99622.28;7390977;19;20025;-76
2023/07/07 00:51:14;;;;;;;3.22;0.52;;;;;;;18.77;100.00;99614.78;7391353;19;20368;-76
2023/07/07 00:53:45;;;;;;;0.88;0.57;;;;;;;18.75;100.00;99611.72;7390707;19;20050;-77
2023/07/07 00:56:25;;;;;;;0.20;0.20;;;;;;;18.13;100.00;99614.66;7395168;19;20532;-77
2023/07/07 00:58:52;;;;;;;2.70;0.97;;;;;;;18.82;100.00;99622.38;7392313;19;20015;-77
2023/07/07 01:01:18;;;;;;;0.60;0.20;;;;;;;20.31;100.00;99621.56;7391219;19;20014;-76
2023/07/07 01:03:51;;;;;;;0.55;0.38;;;;;;;19.75;100.00;99618.38;7391319;19;20018;-76
2023/07/07 01:06:23;;;;;;;1.70;1.15;;;;;;;18.68;100.00;99615.94;7394737;19;20051;-76
2023/07/07 01:08:58;;;;;;;0.52;0.30;;;;;;;18.16;100.00;99615.66;7390284;19;20014;-77
2023/07/07 01:11:24;;;;;;;5.43;0.60;;;;;;;17.55;100.00;99616.44;7391325;19;20019;-77
2023/07/07 01:13:51;;;;;;;2.92;0.73;;;;;;;18.02;100.00;99620.47;7391794;19;20022;-77
2023/07/07 01:16:36;;;;;;;6.40;0.93;;;;;;;18.47;100.00;99611.41;7394132;19;20032;-76
2023/07/07 01:19:21;;;;;;;0.45;0.38;;;;;;;17.98;100.00;99605.91;7391964;19;20017;-77
2023/07/07 01:22:05;;;;;;;3.83;0.55;;;;;;;18.05;100.00;99607.38;7389871;19;20015;-77
2023/07/07 01:24:52;;;;;;;1.08;0.63;;;;;;;18.03;100.00;99610.72;7389084;19;20371;-77
2023/07/07 01:27:30;;;;;;;2.10;0.47;;;;;;;17.88;100.00;99607.59;7389727;19;20015;-76
2023/07/07 01:30:17;;;;;;;5.93;0.50;;;;;;;17.77;100.00;99602.09;7391840;19;20018;-77
2023/07/07 01:32:44;;;;;;;0.95;0.47;;;;;;;17.11;100.00;99602.78;7389320;19;20014;-77
2023/07/07 01:35:15;;;;;;;0.75;0.75;;;;;;;16.90;100.00;99605.31;7389859;19;20014;-76
2023/07/07 01:37:59;;;;;;;1.00;0.55;;;;;;;16.78;100.00;99611.56;7391436;19;20035;-76
2023/07/07 01:40:37;;;;;;;2.22;0.55;;;;;;;16.48;100.00;99609.44;7391274;19;20018;-76
2023/07/07 01:43:10;;;;;;;0.77;0.40;;;;;;;16.29;100.00;99614.19;7390164;19;20021;-76
2023/07/07 01:45:47;;;;;;;4.22;0.63;;;;;;;16.52;100.00;99612.75;7392134;19;20019;-76
2023/07/07 01:48:59;;;;;;;7.43;0.57;;;;;;;16.38;100.00;99619.50;7397236;19;20026;-76
2023/07/07 01:51:33;;;;;;;2.05;0.95;;;;;;;15.90;100.00;99625.63;7398165;19;20026;-76
2023/07/07 01:54:03;;;;;;;1.85;0.77;;;;;;;15.97;100.00;99624.31;7399146;19;20038;-77
2023/07/07 01:56:31;;;;;;;1.48;0.63;;;;;;;15.66;100.00;99630.31;7402191;19;20027;-76
2023/07/07 01:58:58;;;;;;;0.45;0.45;;;;;;;15.61;100.00;99628.31;7396957;19;20025;-76
2023/07/07 02:01:26;;;;;;;0.95;0.40;;;;;;;15.71;100.00;99624.69;7395945;19;20018;-76
2023/07/07 02:03:52;;;;;;;1.85;0.65;;;;;;;15.65;100.00;99632.38;7395688;19;20018;-76
2023/07/07 02:06:18;;;;;;;0.45;0.38;;;;;;;15.81;100.00;99633.56;7401092;19;20029;-76
2023/07/07 02:08:44;;;;;;;2.28;1.27;;;;;;;15.77;100.00;99633.09;7397815;19;20469;-76
2023/07/07 02:11:11;;;;;;;0.40;0.40;;;;;;;15.62;100.00;99627.03;7397992;19;20019;-77
2023/07/07 02:13:38;;;;;;;3.25;0.60;;;;;;;15.97;100.00;99623.56;7396386;19;20026;-77
2023/07/07 02:16:05;;;;;;;0.75;0.40;;;;;;;15.71;100.00;99623.94;7398043;19;20014;-77
2023/07/07 02:18:37;;;;;;;1.85;0.20;;;;;;;15.73;100.00;99621.38;7397786;19;20030;-77
2023/07/07 02:21:05;;;;;;;2.92;0.25;;;;;;;15.38;100.00;99629.59;7396160;19;20024;-76
2023/07/07 02:23:32;;;;;;;0.10;0.10;;;;;;;15.72;100.00;99636.69;7394366;19;20335;-77
2023/07/07 02:25:58;;;;;;;2.67;0.80;;;;;;;15.55;100.00;99631.13;7399336;19;20032;-77
2023/07/07 02:28:24;;;;;;;0.50;0.50;;;;;;;15.33;100.00;99639.59;7397248;19;20035;-77
2023/07/07 02:30:52;;;;;;;0.47;0.40;;;;;;;15.54;100.00;99645.69;7396040;19;20043;-76
2023/07/07 02:33:18;;;;;;;0.25;0.25;;;;;;;15.39;100.00;99636.75;7394387;19;20022;-76
2023/07/07 02:35:48;;;;;;;0.77;0.38;;;;;;;15.29;100.00;99655.16;7397310;19;20021;-76
2023/07/07 02:38:15;;;;;;;0.20;0.20;;;;;;;15.43;100.00;99656.91;7396928;19;20045;-76
2023/07/07 02:40:42;;;;;;;0.30;0.20;;;;;;;15.64;100.00;99658.91;7394827;19;20038;-76
2023/07/07 02:43:08;;;;;;;1.05;0.47;;;;;;;15.26;100.00;99651.34;7392378;19;20135;-76
2023/07/07 02:45:34;;;;;;;0.95;0.80;;;;;;;15.09;100.00;99653.41;7394544;19;20381;-77
2023/07/07 02:48:00;;;;;;;0.85;0.57;;;;;;;15.47;100.00;99651.81;7395811;19;20485;-77
2023/07/07 02:50:26;;;;;;;0.20;0.20;;;;;;;15.38;100.00;99658.44;7395921;19;20950;-76
2023/07/07 02:52:52;;;;;;;1.15;0.50;;;;;;;15.17;100.00;99654.41;7395037;19;20019;-77
2023/07/07 02:55:19;;;;;;;0.30;0.30;;;;;;;15.59;100.00;99658.94;7396847;19;20021;-77
2023/07/07 02:57:45;;;;;;;0.50;0.20;;;;;;;14.91;100.00;99649.06;7397118;19;20007;-77
2023/07/07 03:00:13;;;;;;;0.30;0.30;;;;;;;14.80;100.00;99649.06;7396000;19;20031;-76
2023/07/07 03:02:39;;;;;;;3.72;1.08;;;;;;;14.93;100.00;99646.53;7393031;19;20096;-77
2023/07/07 03:05:06;;;;;;;0.82;0.80;;;;;;;15.02;100.00;99643.47;7393525;19;20010;-76
2023/07/07 03:07:32;;;;;;;2.58;0.65;;;;;;;15.14;100.00;99656.19;7395822;19;20019;-76
2023/07/07 03:09:58;;;;;;;1.02;0.63;;;;;;;15.09;100.00;99656.94;7394067;19;20492;-76
2023/07/07 03:12:25;;;;;;;2.17;0.47;;;;;;;15.19;100.00;99652.63;7392842;19;20022;-76
2023/07/07 03:14:54;;;;;;;1.15;0.30;;;;;;;15.48;100.00;99653.34;7397250;19;20469;-76
2023/07/07 03:17:22;;;;;;;0.30;0.20;;;;;;;15.18;100.00;99655.94;7395592;19;20014;-76
2023/07/07 03:19:52;;;;;;;1.70;0.50;;;;;;;15.01;100.00;99664.34;7394171;19;20018;-76
2023/07/07 03:22:20;;;;;;;0.30;0.30;;;;;;;15.10;100.00;99658.50;7392630;19;20355;-76
2023/07/07 03:24:53;;;;;;;1.13;0.38;;;;;;;15.05;100.00;99664.84;7392123;19;20010;-76
2023/07/07 03:27:51;;;;;;;1.63;1.38;;;;;;;16.25;100.00;99655.84;7393752;19;20473;-76
2023/07/07 03:30:34;;;;;;;1.10;0.47;;;;;;;15.86;100.00;99658.06;7393628;19;20538;-77
2023/07/07 03:33:13;;;;;;;0.30;0.20;;;;;;;15.69;100.00;99660.94;7390976;19;20110;-76
2023/07/07 03:35:41;;;;;;;0.43;0.43;;;;;;;15.88;100.00;99661.91;7394045;19;20359;-76
2023/07/07 03:38:09;;;;;;;1.55;0.50;;;;;;;15.22;100.00;99661.28;7393100;19;20457;-76
2023/07/07 03:40:36;;;;;;;0.40;0.40;;;;;;;15.78;100.00;99657.88;7393565;19;20039;-76
2023/07/07 03:43:02;;;;;;;0.80;0.45;;;;;;;16.26;100.00;99653.81;7391185;19;20018;-76
2023/07/07 03:45:34;;;;;;;0.40;0.32;;;;;;;15.76;100.00;99651.22;7391803;19;20006;-77
2023/07/07 03:48:00;;;;;;;1.15;1.05;;;;;;;15.02;100.00;99651.88;7392798;19;20010;-77
2023/07/07 03:50:26;;;;;;;0.77;0.70;;;;;;;15.61;100.00;99647.97;7394792;19;20018;-76
2023/07/07 03:52:53;;;;;;;2.90;1.00;;;;;;;16.10;100.00;99647.00;7391521;19;20011;-76
2023/07/07 03:55:20;;;;;;;0.65;0.17;;;;;;;16.65;100.00;99648.72;7392617;19;20525;-76
2023/07/07 03:57:46;;;;;;;0.40;0.40;;;;;;;15.05;100.00;99653.63;7395685;19;20368;-76
2023/07/07 04:00:12;;;;;;;0.57;0.50;;;;;;;15.97;100.00;99657.25;7392476;19;20007;-76
2023/07/07 04:02:43;;;;;;;1.13;0.75;;;;;;;17.75;100.00;99658.19;7392706;19;20010;-76
2023/07/07 04:05:10;;;;;;;1.02;0.45;;;;;;;17.04;100.00;99654.81;7391601;19;20021;-76
2023/07/07 04:07:36;;;;;;;0.50;0.38;;;;;;;17.05;100.00;99655.56;7392625;19;20377;-76
2023/07/07 04:10:03;;;;;;;0.47;0.30;;;;;;;16.94;100.00;99659.22;7392730;19;20026;-77
2023/07/07 04:12:31;;;;;;;4.88;0.85;;;;;;;16.67;100.00;99658.16;7392940;19;20018;-77
2023/07/07 04:14:58;;;;;;;1.25;0.52;;;;;;;15.72;100.00;99665.53;7393549;19;20025;-76
2023/07/07 04:17:24;;;;;;;1.70;0.93;;;;;;;16.43;100.00;99660.09;7396575;19;20486;-76
2023/07/07 04:19:50;;;;;;;1.48;0.77;;;;;;;16.78;100.00;99659.38;7390939;19;20011;-76
2023/07/07 04:22:16;;;;;;;0.20;0.20;;;;;;;15.71;100.00;99657.63;7391069;19;20018;-76
2023/07/07 04:24:42;;;;;;;1.38;0.77;;;;;;;16.38;100.00;99652.44;7392084;19;20019;-76
2023/07/07 04:27:10;;;;;;;0.52;0.52;;;;;;;18.22;100.00;99657.84;7394473;19;20007;-76
2023/07/07 04:29:36;;;;;;;2.05;0.30;;;;;;;17.40;100.00;99661.09;7392782;19;20014;-76
2023/07/07 04:32:04;;;;;;;0.22;0.22;;;;;;;15.76;100.00;99663.22;7391719;19;20377;-77
2023/07/07 04:34:31;;;;;;;0.40;0.20;;;;;;;16.44;100.00;99662.38;7392439;19;20450;-77
2023/07/07 04:36:57;;;;;;;0.60;0.35;;;;;;;15.94;100.00;99659.06;7397034;19;20021;-77
2023/07/07 04:39:23;;;;;;;0.68;0.65;;;;;;;15.40;100.00;99666.38;7393188;19;20461;-77
2023/07/07 04:41:50;;;;;;;1.10;0.50;;;;;;;15.69;100.00;99677.78;7392595;19;20021;-76
2023/07/07 04:44:17;;;;;;;0.22;0.22;;;;;;;15.62;100.00;99671.94;7392153;19;20019;-76
2023/07/07 04:46:43;;;;;;;2.28;0.60;;;;;;;15.83;100.00;99670.34;7395717;19;20363;-77
2023/07/07 04:49:11;;;;;;;0.57;0.57;;;;;;;16.02;100.00;99665.69;7392204;19;20031;-77
2023/07/07 04:51:39;;;;;;;0.52;0.52;;;;;;;16.19;100.00;99671.97;7393181;19;20022;-77
2023/07/07 04:54:09;;;;;;;0.80;0.40;;;;;;;15.39;100.00;99670.44;7392761;19;20093;-77
2023/07/07 04:56:35;;;;;;;1.10;0.30;;;;;;;15.26;100.00;99673.00;7394787;19;20067;-76
2023/07/07 04:59:03;;;;;;;0.15;0.15;;;;;;;15.28;100.00;99670.44;7390198;19;20010;-76
2023/07/07 05:01:30;;;;;;;0.43;0.32;;;;;;;15.17;100.00;99676.84;7390231;19;20021;-76
2023/07/07 05:04:01;;;;;;;1.90;0.30;;;;;;;15.35;100.00;99675.56;7391743;19;20470;-76
2023/07/07 05:06:31;;;;;;;0.95;0.30;;;;;;;15.69;100.00;99677.03;7394855;19;20014;-76
2023/07/07 05:08:58;;;;;;;0.40;0.40;;;;;;;15.81;100.00;99678.50;7391642;19;20395;-77
2023/07/07 05:11:28;;;;;;;0.98;0.90;;;;;;;15.75;100.00;99678.53;7392259;19;20481;-76
2023/07/07 05:13:54;;;;;;;0.77;0.30;;;;;;;15.66;100.00;99689.28;7390172;19;20018;-77
2023/07/07 05:16:25;;;;;;;0.38;0.38;;;;;;;15.75;100.00;99691.81;7393651;19;20010;-76
2023/07/07 05:18:52;;;;;;;0.52;0.40;;;;;;;15.86;100.00;99698.16;7389768;19;20361;-76
2023/07/07 05:21:20;;;;;;;0.70;0.40;;;;;;;16.09;100.00;99695.28;7391834;19;20017;-77
2023/07/07 05:23:47;;;;;;;0.40;0.40;;;;;;;15.88;100.00;99694.84;7390015;19;20354;-77
2023/07/07 05:26:13;;;;;;;3.40;0.40;;;;;;;15.40;100.00;99702.84;7393459;19;20018;-77
2023/07/07 05:28:39;;;;;;;0.35;0.30;;;;;;;15.87;100.00;99705.28;7391131;19;20018;-77
2023/07/07 05:31:07;;;;;;;0.95;0.30;;;;;;;16.57;100.00;99701.94;7391400;19;20346;-76
2023/07/07 05:33:37;;;;;;;1.27;0.30;;;;;;;17.04;100.00;99701.88;7389690;19;20014;-76
2023/07/07 05:36:03;;;;;;;5.15;0.65;;;;;;;16.92;100.00;99706.81;7393360;19;20021;-76
2023/07/07 05:38:30;;;;;;;1.20;0.80;;;;;;;17.01;100.00;99708.53;7391109;19;20030;-76
2023/07/07 05:40:57;;;;;;;0.40;0.30;;;;;;;16.76;100.00;99698.50;7393316;19;20022;-77
2023/07/07 05:43:25;;;;;;;2.78;0.60;;;;;;;17.14;100.00;99705.88;7389077;19;20010;-76
2023/07/07 05:45:56;;;;;;;0.85;0.40;;;;;;;17.17;100.00;99711.22;7391703;19;20025;-77
2023/07/07 05:48:23;;;;;;;1.00;0.60;;;;;;;17.56;100.00;99712.94;7390984;19;20108;-77
2023/07/07 05:50:49;;;;;;;0.45;0.45;;;;;;;17.54;100.00;99710.66;7390961;19;20014;-77
2023/07/07 05:53:16;;;;;;;0.63;0.55;;;;;;;17.56;100.00;99713.72;7388835;19;20018;-77
2023/07/07 05:55:46;;;;;;;0.75;0.15;;;;;;;17.57;100.00;99715.22;7390955;19;20035;-76
2023/07/07 05:58:14;;;;;;;1.10;0.30;;;;;;;19.60;100.00;99715.75;7394807;19;20018;-76
2023/07/07 06:00:40;;;;;;;1.10;0.73;;;;;;;18.25;100.00;99716.78;7390349;19;20393;-77
2023/07/07 06:03:07;;;;;;;0.20;0.20;;;;;;;17.43;100.00;99714.31;7388936;19;20084;-77
2023/07/07 06:05:33;;;;;;;2.75;0.68;;;;;;;17.92;100.00;99717.16;7388684;19;20124;-77
2023/07/07 06:08:00;;;;;;;1.45;0.35;;;;;;;17.86;100.00;99722.88;7390007;19;20017;-76
2023/07/07 06:10:27;;;;;;;1.17;0.30;;;;;;;18.00;100.00;99724.50;7389292;19;20553;-77
2023/07/07 06:12:53;;;;;;;0.38;0.20;;;;;;;17.56;100.00;99721.41;7388577;19;20348;-77
2023/07/07 06:15:19;;;;;;;1.55;0.47;;;;;;;17.63;100.00;99724.38;7388673;19;20027;-77
2023/07/07 06:17:45;;;;;;;9.05;0.77;;;;;;;18.26;100.00;99723.91;7390366;19;20018;-77
2023/07/07 06:20:13;;;;;;;7.88;0.45;;;;;;;17.88;100.00;99728.75;7390575;19;20345;-76
2023/07/07 06:22:39;;;;;;;0.32;0.30;;;;;;;17.98;100.00;99726.31;7388420;19;20018;-77
2023/07/07 06:25:05;;;;;;;0.88;0.30;;;;;;;17.82;100.00;99742.09;7386580;19;20003;-77
2023/07/07 06:27:32;;;;;;;0.30;0.20;;;;;;;17.91;100.00;99738.94;7394448;19;20045;-77
2023/07/07 06:29:58;;;;;;;0.30;0.30;;;;;;;17.99;100.00;99739.88;7389462;19;20043;-77
2023/07/07 06:32:24;;;;;;;0.28;0.20;;;;;;;18.13;100.00;99738.69;7392095;19;20443;-77
2023/07/07 06:34:50;;;;;;;1.25;0.60;;;;;;;17.90;100.00;99737.44;7397166;19;20119;-77
2023/07/07 06:37:17;;;;;;;0.90;0.30;;;;;;;17.56;100.00;99743.94;7401318;19;20114;-77
2023/07/07 06:39:43;;;;;;;1.30;0.55;;;;;;;18.05;100.00;99749.03;7397097;19;20036;-76
2023/07/07 06:42:09;;;;;;;0.52;0.40;;;;;;;18.37;100.00;99740.69;7396058;19;20503;-76
2023/07/07 06:44:38;;;;;;;3.17;0.25;;;;;;;18.37;100.00;99739.94;7393959;19;20529;-77
2023/07/07 06:47:05;;;;;;;0.65;0.40;;;;;;;17.91;100.00;99741.75;7399869;19;20011;-77
2023/07/07 06:49:31;;;;;;;0.50;0.40;;;;;;;18.79;100.00;99753.25;7395720;19;20015;-77
2023/07/07 06:51:57;;;;;;;1.25;0.40;;;;;;;19.36;100.00;99755.44;7395768;19;20010;-77
2023/07/07 06:54:23;;;;;;;0.22;0.20;;;;;;;19.73;100.00;99748.16;7397215;19;20019;-77
2023/07/07 06:56:50;;;;;;;1.60;0.57;;;;;;;19.84;100.00;99765.66;7399427;19;20039;-77
2023/07/07 06:59:16;;;;;;;0.80;0.57;;;;;;;19.95;100.00;99756.19;7396623;19;20010;-77
2023/07/07 07:01:42;;;;;;;1.30;0.50;;;;;;;20.17;100.00;99764.25;7395667;19;20306;-76
2023/07/07 07:04:08;;;;;;;3.70;0.30;;;;;;;20.48;100.00;99760.56;7396064;19;20014;-77
2023/07/07 07:06:34;;;;;;;1.67;0.68;;;;;;;20.79;100.00;99758.88;7397821;19;20485;-77
2023/07/07 07:09:00;;;;;;;1.88;0.38;;;;;;;20.98;100.00;99757.41;7396140;19;20044;-77
2023/07/07 07:11:26;;;;;;;2.00;0.50;;;;;;;21.24;100.00;99762.22;7395778;19;20377;-77
2023/07/07 07:13:53;;;;;;;0.55;0.38;;;;;;;21.18;100.00;99763.66;7394256;19;20484;-77
2023/07/07 07:16:19;;;;;;;0.90;0.55;;;;;;;21.24;100.00;99767.88;7395962;19;20350;-77
2023/07/07 07:18:45;;;;;;;0.20;0.20;;;;;;;20.23;100.00;99764.94;7395388;19;20010;-77
2023/07/07 07:21:11;;;;;;;0.35;0.17;;;;;;;20.78;100.00;99771.50;7394821;19;20527;-77
2023/07/07 07:23:37;;;;;;;1.85;0.40;;;;;;;21.16;100.00;99767.03;7392587;19;20015;-77
2023/07/07 07:26:04;;;;;;;0.38;0.17;;;;;;;21.60;100.00;99765.19;7391488;19;20023;-77
2023/07/07 07:28:31;;;;;;;0.40;0.20;;;;;;;22.63;100.00;99760.00;7392978;19;20477;-76
2023/07/07 07:30:57;;;;;;;0.52;0.20;;;;;;;24.43;100.00;99759.97;7392550;19;20477;-78
2023/07/07 07:33:23;;;;;;;1.75;0.57;;;;;;;22.12;100.00;99767.69;7392483;19;20019;-77
2023/07/07 07:35:49;;;;;;;0.77;0.25;;;;;;;21.42;100.00;99772.56;7394153;19;20104;-77
2023/07/07 07:38:17;;;;;;;0.47;0.30;;;;;;;20.55;100.00;99771.22;7393582;19;20025;-77
2023/07/07 07:40:44;;;;;;;0.95;0.47;;;;;;;20.25;100.00;99770.81;7395775;19;20014;-77
2023/07/07 07:43:10;;;;;;;0.75;0.43;;;;;;;21.08;100.00;99766.97;7389935;19;20374;-77
2023/07/07 07:45:37;;;;;;;4.85;0.40;;;;;;;20.47;100.00;99775.25;7392237;19;20382;-77
2023/07/07 07:48:03;;;;;;;1.45;0.32;;;;;;;21.30;100.00;99776.25;7392294;19;20035;-77
2023/07/07 07:50:31;;;;;;;0.93;0.30;;;;;;;22.47;100.00;99772.63;7392254;19;20022;-77
2023/07/07 07:52:57;;;;;;;1.65;0.10;;;;;;;22.84;100.00;99776.19;7394977;19;20525;-77
2023/07/07 07:55:23;;;;;;;0.45;0.20;;;;;;;22.44;100.00;99773.72;7394775;19;20036;-77
2023/07/07 07:57:49;;;;;;;0.50;0.20;;;;;;;21.95;100.00;99787.22;7396884;19;20509;-76
2023/07/07 08:00:16;;;;;;;1.55;0.73;;;;;;;20.42;100.00;99784.63;7391858;19;20019;-77
2023/07/07 08:02:42;;;;;;;0.98;0.20;;;;;;;20.89;100.00;99789.00;7390608;19;20045;-77
2023/07/07 08:05:09;;;;;;;9.23;0.30;;;;;;;20.23;100.00;99793.22;7394832;19;20043;-77
2023/07/07 08:07:35;;;;;;;4.47;0.52;;;;;;;20.22;100.00;99783.22;7393639;19;20469;-77
2023/07/07 08:10:03;;;;;;;0.40;0.20;;;;;;;20.49;100.00;99790.38;7393103;19;20014;-77
2023/07/07 08:12:30;;;;;;;1.10;0.43;;;;;;;20.40;100.00;99782.31;7393724;19;20022;-77
2023/07/07 08:14:56;;;;;;;0.85;0.20;;;;;;;20.39;100.00;99778.00;7391980;19;20015;-78
2023/07/07 08:17:22;;;;;;;0.20;0.10;;;;;;;20.48;100.00;99783.22;7395225;19;20035;-77
2023/07/07 08:19:48;;;;;;;0.40;0.30;;;;;;;20.58;100.00;99784.28;7394053;19;20363;-77
2023/07/07 08:22:18;;;;;;;0.63;0.20;;;;;;;20.82;100.00;99778.34;7392974;19;20022;-76
2023/07/07 08:24:47;;;;;;;0.98;0.25;;;;;;;21.44;100.00;99780.53;7392799;19;20026;-77
2023/07/07 08:27:14;;;;;;;7.55;0.20;;;;;;;21.84;100.00;99771.28;7393101;19;20049;-77
2023/07/07 08:29:42;;;;;;;0.85;0.00;;;;;;;21.71;100.00;99784.75;7395644;19;20024;-76
2023/07/07 08:32:10;;;;;;;0.75;0.30;;;;;;;23.66;100.00;99778.47;7391855;19;20019;-76
2023/07/07 08:34:38;;;;;;;0.20;0.10;;;;;;;22.99;100.00;99781.91;7393135;19;20018;-77
2023/07/07 08:37:04;;;;;;;4.63;1.05;;;;;;;22.47;100.00;99778.28;7393005;19;20358;-77
2023/07/07 08:39:31;;;;;;;5.57;0.30;;;;;;;23.44;100.00;99782.03;7393133;19;20022;-77
2023/07/07 08:42:06;;;;;;;0.82;0.20;;;;;;;23.54;100.00;99783.00;7395008;19;20018;-76
2023/07/07 08:44:35;;;;;;;0.55;0.10;;;;;;;22.44;100.00;99778.63;7389666;19;20346;-76
2023/07/07 08:47:04;;;;;;;0.50;0.47;;;;;;;22.67;100.00;99781.63;7390738;19;20011;-77
2023/07/07 08:50:03;;;;;;;2.40;0.32;;;;;;;22.39;100.00;99794.50;7393177;19;20018;-76
2023/07/07 08:52:53;;;;;;;8.52;0.32;;;;;;;24.99;100.00;99775.72;7389474;19;20010;-77
2023/07/07 08:55:34;;;;;;;8.63;0.30;;;;;;;23.64;100.00;99788.88;7392274;19;20015;-78
2023/07/07 08:58:07;;;;;;;1.33;0.30;;;;;;;23.29;100.00;99793.34;7396229;19;20022;-76
2023/07/07 09:01:20;;;;;;;2.33;0.50;;;;;;;23.30;100.00;99789.22;7392126;19;20011;-76
2023/07/07 09:04:12;;;;;;;0.60;0.10;;;;;;;22.78;100.00;99786.97;7386943;19;20021;-77
2023/07/07 09:07:17;;;;;;;10.15;0.40;;;;;;;23.08;100.00;99793.50;7389574;19;20027;-76
2023/07/07 09:09:55;;;;;;;0.30;0.10;;;;;;;22.97;100.00;99781.72;7389838;19;20362;-76
2023/07/07 09:12:30;;;;;;;0.10;0.10;;;;;;;22.69;100.00;99781.81;7389492;19;20018;-76
2023/07/07 09:14:59;;;;;;;4.03;0.20;;;;;;;22.80;100.00;99787.16;7389952;19;20041;-76
2023/07/07 09:17:32;;;;;;;2.15;0.65;;;;;;;22.48;100.00;99796.81;7393894;19;20552;-77
2023/07/07 09:20:01;;;;;;;0.73;0.32;;;;;;;23.06;100.00;99786.88;7389815;19;20014;-77
2023/07/07 09:22:33;;;;;;;1.13;0.20;;;;;;;23.60;100.00;99786.44;7389391;19;20057;-76
2023/07/07 09:24:59;;;;;;;0.47;0.10;;;;;;;22.85;100.00;99784.13;7391106;19;20021;-76
2023/07/07 09:27:30;;;;;;;1.13;0.10;;;;;;;22.85;100.00;99795.50;7390461;19;20363;-76
2023/07/07 09:30:02;;;;;;;;;;;;;;;22.80;100.00;99799.28;7395435;19;20557;-77
2023/07/07 09:32:28;;;;;;;0.80;0.00;;;;;;;22.88;100.00;99793.63;7390239;19;19946;-77
2023/07/07 09:34:54;;;;;;;0.10;0.00;;;;;;;24.42;100.00;99792.63;7391093;19;20048;-77
2023/07/07 09:37:45;;;;;;;0.52;0.10;;;;;;;26.17;100.00;99788.16;7391657;19;20007;-76
2023/07/07 09:40:19;;;;;;;0.30;0.20;;;;;;;28.24;100.00;99784.88;7394409;19;20023;-78
2023/07/07 09:42:54;;;;;;;1.73;0.17;;;;;;;26.12;100.00;99787.06;7389417;19;20485;-76
2023/07/07 09:45:58;;;;;;;0.70;0.35;;;;;;;24.14;100.00;99795.72;7387456;19;20026;-76
2023/07/07 09:48:34;;;;;;;1.60;0.40;;;;;;;24.74;100.00;99789.84;7389671;19;20022;-77
2023/07/07 09:51:10;;;;;;;1.45;0.20;;;;;;;25.17;100.00;99797.25;7392064;19;20019;-77
2023/07/07 09:53:40;;;;;;;2.35;0.30;;;;;;;25.36;100.00;99803.97;7389260;19;20014;-76
2023/07/07 09:56:18;;;;;;;0.98;0.20;;;;;;;25.09;100.00;99797.31;7389363;19;20085;-76
2023/07/07 09:59:02;;;;;;;0.47;0.20;;;;;;;25.69;100.00;99795.41;7390777;19;20019;-76
2023/07/07 10:01:34;;;;;;;0.57;0.10;;;;;;;27.59;96.58;99784.09;7389353;19;20499;-77
2023/07/07 10:04:01;;;;;;;0.20;0.10;;;;;;;28.07;86.24;99790.75;7390752;19;20025;-77
2023/07/07 10:06:42;;;;;;;1.05;0.10;;;;;;;27.21;91.77;99786.75;7390965;19;20018;-77
2023/07/07 10:09:11;;;;;;;0.70;0.10;;;;;;;26.21;99.44;99788.50;7395446;19;20418;-77
2023/07/07 10:11:39;;;;;;;2.30;0.28;;;;;;;27.48;95.85;99790.38;7395583;19;20010;-77
2023/07/07 10:14:07;;;;;;;2.13;0.10;;;;;;;29.56;84.80;99789.63;7397798;19;20015;-77
2023/07/07 10:16:33;;;;;;;1.27;0.10;;;;;;;29.56;75.85;99778.13;7400880;19;20024;-77
2023/07/07 10:19:06;;;;;;;1.02;0.20;;;;;;;28.18;82.04;99775.84;7399806;19;20059;-77
2023/07/07 10:21:33;;;;;;;2.70;0.10;;;;;;;28.82;80.11;99779.19;7402703;19;20022;-76
2023/07/07 10:23:59;;;;;;;0.40;0.32;;;;;;;30.77;75.62;99784.34;7404873;19;20570;-76
2023/07/07 10:26:25;;;;;;;0.80;0.20;;;;;;;30.66;81.59;99785.03;7398228;19;20025;-77
2023/07/07 10:28:55;;;;;;;1.77;0.35;;;;;;;27.97;79.64;99784.25;7395853;19;20010;-77
2023/07/07 10:31:24;;;;;;;0.30;0.17;;;;;;;32.57;70.04;99771.16;7397670;19;20007;-77
2023/07/07 10:33:56;;;;;;;2.95;0.20;;;;;;;33.16;57.61;99766.63;7395790;19;20024;-77
2023/07/07 10:36:32;;;;;;;1.98;0.80;;;;;;;29.65;75.82;99766.59;7398973;19;20043;-77
2023/07/07 10:38:59;;;;;;;0.43;0.10;;;;;;;29.39;71.19;99779.09;7397420;19;20018;-77
2023/07/07 10:41:26;;;;;;;0.55;0.20;;;;;;;37.96;48.78;99760.78;7396156;19;20077;-77
2023/07/07 10:43:54;;;;;;;1.55;0.57;;;;;;;32.25;55.53;99769.22;7395349;19;20039;-77
2023/07/07 10:46:20;;;;;;;0.57;0.15;;;;;;;26.60;84.07;99772.44;7396519;19;20015;-77
2023/07/07 10:48:47;;;;;;;1.27;0.20;;;;;;;25.49;94.94;99778.06;7397905;19;20015;-77
2023/07/07 10:51:52;;;;;;;0.75;0.10;;;;;;;25.58;96.65;99774.56;7394890;19;20014;-77
2023/07/07 10:54:26;;;;;;;0.40;0.10;;;;;;;26.13;92.68;99765.75;7397037;19;20025;-77
2023/07/07 10:57:06;;;;;;;3.30;1.02;;;;;;;25.79;95.64;99762.06;7397677;19;20030;-77
2023/07/07 10:59:39;;;;;;;0.73;0.40;;;;;;;25.83;97.86;99766.00;7396031;19;20025;-77
2023/07/07 11:02:09;;;;;;;0.30;0.10;;;;;;;26.70;96.60;99764.72;7400247;19;20015;-77
2023/07/07 11:05:12;;;;;;;1.13;0.10;;;;;;;28.35;85.47;99767.13;7395770;19;20014;-77
2023/07/07 11:07:59;;;;;;;5.82;0.00;;;;;;;28.32;80.32;99771.19;7394366;19;20014;-77
2023/07/07 11:10:28;;;;;;;1.70;0.13;;;;;;;27.23;90.96;99758.31;7394023;19;20019;-77
2023/07/07 11:13:28;;;;;;;0.65;0.22;;;;;;;28.69;83.41;99753.88;7395787;19;20475;-76
2023/07/07 11:16:05;;;;;;;0.22;0.03;;;;;;;28.84;84.38;99753.53;7394360;19;20023;-77
2023/07/07 11:18:49;;;;;;;0.10;0.00;;;;;;;29.79;77.24;99764.00;7393924;19;20018;-77
2023/07/07 11:21:42;;;;;;;0.38;0.10;;;;;;;30.93;71.01;99755.91;7395425;19;20474;-77
2023/07/07 11:24:20;;;;;;;0.43;0.20;;;;;;;29.05;78.39;99762.25;7394209;19;20023;-77
2023/07/07 11:27:01;;;;;;;1.58;0.00;;;;;;;30.41;68.43;99761.78;7395526;19;20033;-76
2023/07/07 11:29:30;;;;;;;0.60;0.03;;;;;;;32.22;58.61;99758.22;7396099;19;20023;-77
2023/07/07 11:32:09;;;;;;;1.52;0.17;;;;;;;28.79;70.14;99766.06;7394432;19;20040;-77
2023/07/07 11:34:47;;;;;;;0.40;0.20;;;;;;;29.00;74.88;99754.72;7394541;19;20019;-77
2023/07/07 11:37:36;;;;;;;0.50;0.08;;;;;;;30.61;69.10;99754.50;7394332;19;20039;-77
2023/07/07 11:40:05;;;;;;;1.55;0.95;;;;;;;30.53;68.11;99748.97;7394955;19;20022;-77
2023/07/07 11:42:59;;;;;;;0.95;0.20;;;;;;;45.66;35.04;99724.66;7393789;19;20096;-77